Time;durP1;ratioP1;P1;durP2;ratioP2;P2;SDS_P1;SDS_P2;PMS_P1;PMS_P2;Temp;Humidity;BMP_temperature;BMP_pressure;BME280_temperature;BME280_humidity;BME280_pressure;Samples;Min_cycle;Max_cycle;Signal;HPM_P1;HPM_P2
2022/01/19 00:02:20;;;;;;;9.60;4.55;;;;;;;-5.17;92.48;100050.37;1760715;81;21375;-80
2022/01/19 00:05:26;;;;;;;8.30;5.20;;;;;;;-5.12;92.34;100056.80;1759524;81;21257;-79
2022/01/19 00:08:32;;;;;;;9.00;4.50;;;;;;;-5.10;92.26;100051.75;1759561;81;21827;-77
2022/01/19 00:11:37;;;;;;;8.25;4.25;;;;;;;-5.08;92.09;100059.66;1759643;81;21303;-77
2022/01/19 00:14:42;;;;;;;5.83;3.65;;;;;;;-5.09;92.20;100052.13;1760196;81;21842;-77
2022/01/19 00:17:54;;;;;;;8.08;4.10;;;;;;;-5.08;92.14;100064.55;1753449;81;21308;-78
2022/01/19 00:20:59;;;;;;;6.97;4.37;;;;;;;-5.08;92.19;100064.99;1824965;78;21174;-77
2022/01/19 00:24:04;;;;;;;8.65;4.67;;;;;;;-5.09;92.33;100058.80;1824286;78;21272;-77
2022/01/19 00:27:09;;;;;;;20.57;4.80;;;;;;;-5.08;92.50;100069.88;1752113;82;21335;-78
2022/01/19 00:30:15;;;;;;;7.30;4.00;;;;;;;-5.07;92.54;100072.08;1823407;78;22547;-77
2022/01/19 00:33:21;;;;;;;9.38;4.72;;;;;;;-5.09;92.81;100077.47;1751536;82;21352;-78
2022/01/19 00:36:26;;;;;;;9.53;4.65;;;;;;;-5.06;92.96;100085.80;1752061;82;21312;-77
2022/01/19 00:39:34;;;;;;;11.35;5.20;;;;;;;-5.06;93.23;100080.45;1824827;78;21260;-77
2022/01/19 00:42:40;;;;;;;9.38;5.03;;;;;;;-5.04;93.46;100102.09;1752014;82;21194;-77
2022/01/19 00:45:47;;;;;;;12.58;5.60;;;;;;;-5.03;93.53;100089.16;1750867;82;21209;-79
2022/01/19 00:48:54;;;;;;;15.63;5.85;;;;;;;-5.01;93.63;100091.27;1824197;78;21860;-77
2022/01/19 00:52:00;;;;;;;10.40;6.47;;;;;;;-4.98;93.73;100080.44;1752094;82;21297;-77
2022/01/19 00:55:04;;;;;;;10.55;6.58;;;;;;;-4.95;93.90;100073.58;1824150;78;21789;-77
2022/01/19 00:58:11;;;;;;;12.63;7.05;;;;;;;-4.95;93.93;100067.38;1824773;78;21701;-78
2022/01/19 01:01:16;;;;;;;17.55;6.62;;;;;;;-4.97;93.95;100073.29;1752093;82;21292;-77
2022/01/19 01:04:22;;;;;;;14.87;6.17;;;;;;;-4.95;94.00;100071.39;1823747;78;21867;-77
2022/01/19 01:07:27;;;;;;;11.63;6.72;;;;;;;-4.94;93.98;100065.98;1752100;82;21297;-78
2022/01/19 01:10:41;;;;;;;10.20;5.10;;;;;;;-4.93;93.93;100074.37;1752129;82;21344;-77
2022/01/19 01:17:11;;;;;;;13.08;7.25;;;;;;;-4.91;93.93;100064.47;1825059;78;21807;-77
2022/01/19 01:20:05;;;;;;;16.97;7.50;;;;;;;-4.92;94.19;100068.56;1714128;83;21337;-77
2022/01/19 01:23:32;;;;;;;16.52;6.50;;;;;;;-4.93;94.16;100069.52;1744778;82;21768;-77
2022/01/19 01:26:38;;;;;;;12.58;7.08;;;;;;;-4.95;94.45;100086.91;1681322;85;21311;-81
2022/01/19 01:29:44;;;;;;;12.25;7.65;;;;;;;-4.99;94.48;100077.83;1700470;84;21310;-81
2022/01/19 01:32:49;;;;;;;16.50;6.00;;;;;;;-5.01;94.42;100080.59;1697687;84;21163;-81
2022/01/19 01:35:55;;;;;;;15.28;6.75;;;;;;;-5.03;94.12;100086.50;1696768;83;21349;-77
2022/01/19 01:39:01;;;;;;;11.83;6.65;;;;;;;-5.04;93.90;100093.23;1697199;84;21319;-77
2022/01/19 01:42:06;;;;;;;11.78;7.30;;;;;;;-5.04;93.67;100091.89;1696622;84;21310;-77
2022/01/19 01:45:15;;;;;;;16.10;6.22;;;;;;;-5.04;93.41;100110.56;1697465;84;21295;-81
2022/01/19 01:48:22;;;;;;;10.25;6.15;;;;;;;-5.03;93.09;100106.98;1669767;86;21828;-81
2022/01/19 01:54:48;;;;;;;12.15;7.00;;;;;;;-5.05;92.24;100109.70;1697772;84;21745;-77
2022/01/19 01:57:53;;;;;;;14.43;7.72;;;;;;;-5.06;91.79;100112.47;1697870;84;21227;-81
2022/01/19 02:01:00;;;;;;;12.40;6.78;;;;;;;-5.09;91.52;100100.14;1669746;86;21208;-82
2022/01/19 02:04:07;;;;;;;14.63;7.12;;;;;;;-5.08;91.40;100100.55;1700748;84;21290;-82
2022/01/19 02:07:32;;;;;;;15.45;6.85;;;;;;;-5.10;91.55;100091.76;1696733;84;21905;-82
2022/01/19 02:10:42;;;;;;;11.65;6.28;;;;;;;-5.10;91.71;100104.23;1697547;84;21314;-81
2022/01/19 02:23:56;;;;;;;21.20;8.05;;;;;;;-4.95;90.75;100120.27;1700803;84;21294;-83
2022/01/19 02:27:09;;;;;;;20.95;8.93;;;;;;;-4.96;90.30;100125.22;1668315;84;21225;-82
2022/01/19 02:40:10;;;;;;;25.77;12.07;;;;;;;-4.84;89.25;100141.53;1668916;86;21315;-82
2022/01/19 02:43:20;;;;;;;21.55;10.70;;;;;;;-4.77;88.56;100138.42;1669699;86;21288;-79
2022/01/19 02:46:54;;;;;;;21.35;10.25;;;;;;;-4.74;88.34;100141.41;1669686;86;21331;-82
2022/01/19 02:49:44;;;;;;;19.62;10.60;;;;;;;-4.73;88.00;100135.98;1669701;86;21225;-77
2022/01/19 02:52:49;;;;;;;21.70;11.45;;;;;;;-4.73;87.84;100135.98;1669667;86;21645;-82
2022/01/19 02:55:55;;;;;;;25.48;11.80;;;;;;;-4.69;87.77;100146.02;1669493;86;21880;-82
2022/01/19 03:09:02;;;;;;;24.77;13.10;;;;;;;-4.63;86.86;100156.36;1713047;84;21359;-81
2022/01/19 03:12:07;;;;;;;28.17;12.35;;;;;;;-4.62;86.71;100159.41;1711917;84;21208;-78
2022/01/19 03:15:18;;;;;;;32.05;12.63;;;;;;;-4.58;86.73;100164.97;1713008;84;21164;-77
2022/01/19 03:18:24;;;;;;;24.98;13.00;;;;;;;-4.56;86.19;100176.45;1711850;84;21196;-77
2022/01/19 03:21:30;;;;;;;31.73;13.65;;;;;;;-4.55;85.87;100175.97;1711621;84;21386;-82
2022/01/19 03:24:38;;;;;;;25.25;12.25;;;;;;;-4.53;85.97;100186.93;1712907;84;21306;-77
2022/01/19 03:27:47;;;;;;;26.17;13.15;;;;;;;-4.51;85.79;100195.73;1711759;84;21308;-78
2022/01/19 03:30:52;;;;;;;29.40;12.70;;;;;;;-4.49;85.87;100202.32;1712779;84;21323;-78
2022/01/19 03:34:01;;;;;;;36.60;12.53;;;;;;;-4.49;85.54;100204.52;1713108;84;21261;-81
2022/01/19 03:37:08;;;;;;;23.07;12.03;;;;;;;-4.47;85.46;100207.98;1713036;84;21823;-78
2022/01/19 03:40:14;;;;;;;35.65;12.85;;;;;;;-4.47;85.54;100207.98;1713034;84;21165;-78
2022/01/19 03:43:18;;;;;;;35.08;14.83;;;;;;;-4.44;85.41;100206.45;1713099;84;21360;-83
2022/01/19 03:46:32;;;;;;;28.87;12.90;;;;;;;-4.42;85.33;100209.06;1712984;84;21350;-83
2022/01/19 03:49:34;;;;;;;26.65;13.25;;;;;;;-4.41;84.92;100220.13;1713150;84;21292;-79
2022/01/19 03:52:38;;;;;;;24.70;12.35;;;;;;;-4.39;84.94;100219.55;1712959;84;21344;-78
2022/01/19 03:55:43;;;;;;;30.57;13.62;;;;;;;-4.40;84.81;100223.17;1712966;84;21308;-82
2022/01/19 03:58:48;;;;;;;33.13;13.65;;;;;;;-4.42;84.74;100225.94;1711727;83;21311;-78
2022/01/19 04:01:54;;;;;;;27.62;12.23;;;;;;;-4.42;84.78;100231.28;1710177;84;21323;-82
2022/01/19 04:05:06;;;;;;;31.23;13.30;;;;;;;-4.43;84.76;100234.88;1710352;84;21292;-78
2022/01/19 04:08:09;;;;;;;29.67;13.35;;;;;;;-4.42;84.72;100231.76;1710375;84;21810;-79
2022/01/19 04:11:16;;;;;;;39.58;16.07;;;;;;;-4.40;84.78;100230.71;1710144;84;21853;-83
2022/01/19 04:14:24;;;;;;;29.12;14.65;;;;;;;-4.37;84.60;100243.91;1710234;84;21818;-83
2022/01/19 04:17:29;;;;;;;35.87;15.27;;;;;;;-4.36;84.37;100247.44;1710389;84;21359;-79
2022/01/19 04:20:41;;;;;;;37.95;15.95;;;;;;;-4.37;84.23;100240.37;1710264;84;21269;-83
2022/01/19 04:23:43;;;;;;;38.90;16.75;;;;;;;-4.35;84.37;100248.30;1710255;84;22158;-78
2022/01/19 04:30:17;;;;;;;22.35;10.65;;;;;;;-4.37;83.85;100255.92;1709884;84;21916;-78
2022/01/19 04:33:26;;;;;;;19.67;9.65;;;;;;;-4.40;83.94;100258.75;1710210;84;21889;-81
2022/01/19 04:36:57;;;;;;;24.87;10.00;;;;;;;-4.43;84.05;100258.05;1718696;83;21878;-78
2022/01/19 05:06:30;;;;;;;18.17;6.42;;;;;;;-4.62;84.00;100318.23;1711694;84;21744;-79
2022/01/19 05:16:04;;;;;;;16.15;6.58;;;;;;;-4.68;84.54;100312.74;1718128;82;21177;-83
2022/01/19 05:19:10;;;;;;;10.53;6.35;;;;;;;-4.68;84.85;100323.89;1743109;82;21888;-83
2022/01/19 05:22:16;;;;;;;14.10;6.58;;;;;;;-4.70;84.54;100339.14;1715104;82;21283;-83
2022/01/19 05:25:23;;;;;;;14.05;5.65;;;;;;;-4.72;84.62;100328.99;1703167;84;21329;-79
2022/01/19 05:28:26;;;;;;;10.90;5.95;;;;;;;-4.74;84.71;100325.55;1703072;84;21293;-83
2022/01/19 05:31:33;;;;;;;13.45;6.53;;;;;;;-4.75;84.75;100334.48;1721746;82;21299;-82
2022/01/19 05:34:38;;;;;;;14.15;6.53;;;;;;;-4.74;85.08;100330.42;1730383;82;21281;-78
2022/01/19 05:37:45;;;;;;;12.63;5.92;;;;;;;-4.74;85.12;100343.77;1741586;82;21225;-83
2022/01/19 05:40:59;;;;;;;14.98;7.03;;;;;;;-4.74;85.05;100339.76;1703967;81;21304;-76
2022/01/19 05:44:05;;;;;;;18.23;8.13;;;;;;;-4.72;85.20;100346.34;1742631;81;21176;-77
2022/01/19 05:47:11;;;;;;;15.65;7.50;;;;;;;-4.74;84.72;100330.89;1710761;82;21933;-82
2022/01/19 05:50:17;;;;;;;15.95;7.90;;;;;;;-4.75;84.69;100351.83;1682478;85;21331;-82
2022/01/19 05:53:24;;;;;;;29.95;8.90;;;;;;;-4.76;84.88;100352.77;1657431;84;21299;-78
2022/01/19 05:56:31;;;;;;;17.20;8.43;;;;;;;-4.76;84.89;100356.77;1699315;83;21293;-77
2022/01/19 05:59:38;;;;;;;16.10;9.20;;;;;;;-4.73;84.90;100365.50;1694161;83;21329;-77
2022/01/19 06:02:45;;;;;;;16.93;9.75;;;;;;;-4.69;84.63;100359.54;1705943;83;21285;-77
2022/01/19 06:06:05;;;;;;;19.73;9.63;;;;;;;-4.69;84.64;100363.55;1733918;82;21326;-78
2022/01/19 06:12:38;;;;;;;23.47;11.48;;;;;;;-4.67;84.74;100358.98;1737328;81;21658;-82
2022/01/19 06:15:44;;;;;;;19.70;10.43;;;;;;;-4.64;84.48;100366.84;1733729;81;21575;-77
2022/01/19 06:19:03;;;;;;;23.20;10.18;;;;;;;-4.62;84.53;100368.47;1736546;81;21283;-82
2022/01/19 06:22:09;;;;;;;16.93;9.70;;;;;;;-4.63;84.51;100380.57;1693056;83;21590;-82
2022/01/19 06:25:15;;;;;;;21.40;8.28;;;;;;;-4.60;84.53;100372.42;1659974;84;21332;-82
2022/01/19 06:28:20;;;;;;;15.95;7.97;;;;;;;-4.58;84.44;100388.34;1679964;83;21281;-83
2022/01/19 06:31:26;;;;;;;24.43;10.72;;;;;;;-4.56;84.33;100384.67;1677501;83;21507;-83
2022/01/19 06:34:36;;;;;;;28.73;11.75;;;;;;;-4.53;84.30;100396.98;1692190;83;21212;-84
2022/01/19 06:37:47;;;;;;;18.62;9.03;;;;;;;-4.49;83.81;100395.88;1689396;83;21294;-84
2022/01/19 06:41:09;;;;;;;30.25;11.90;;;;;;;-4.42;83.79;100399.98;1658202;84;21334;-83
2022/01/19 06:44:15;;;;;;;28.20;12.82;;;;;;;-4.41;83.56;100401.70;1710635;82;21367;-83
2022/01/19 06:47:21;;;;;;;27.75;12.53;;;;;;;-4.38;83.35;100411.73;1708429;82;21581;-83
2022/01/19 06:50:31;;;;;;;19.27;10.63;;;;;;;-4.34;83.07;100415.59;1706136;82;22007;-84
2022/01/19 06:53:35;;;;;;;19.10;11.22;;;;;;;-4.37;82.78;100417.96;1708694;82;21205;-83
2022/01/19 06:56:42;;;;;;;19.85;9.93;;;;;;;-4.35;82.92;100433.89;1708017;82;21245;-82
2022/01/19 06:59:51;;;;;;;19.95;9.88;;;;;;;-4.31;82.80;100434.13;1707001;82;21253;-83
2022/01/19 07:03:16;;;;;;;21.85;9.80;;;;;;;-4.30;82.13;100438.05;1706553;82;21160;-82
2022/01/19 07:06:32;;;;;;;18.42;8.45;;;;;;;-4.26;82.19;100440.09;1711159;82;21209;-77
2022/01/19 07:09:51;;;;;;;20.68;8.60;;;;;;;-4.25;82.32;100439.15;1710184;82;22189;-79
2022/01/19 07:13:04;;;;;;;22.32;10.05;;;;;;;-4.25;81.84;100447.16;1711216;82;21298;-79
2022/01/19 07:16:15;;;;;;;19.77;8.75;;;;;;;-4.27;81.54;100445.06;1706992;82;21625;-78
2022/01/19 07:19:21;;;;;;;20.25;9.45;;;;;;;-4.24;81.44;100448.88;1711863;82;21307;-83
2022/01/19 07:22:27;;;;;;;25.68;10.78;;;;;;;-4.23;81.19;100447.49;1680567;83;21205;-82
2022/01/19 07:25:34;;;;;;;18.73;8.78;;;;;;;-4.19;80.77;100440.16;1713914;82;21280;-83
2022/01/19 07:28:40;;;;;;;19.62;9.28;;;;;;;-4.15;80.69;100451.08;1710931;82;21813;-81
2022/01/19 07:31:46;;;;;;;15.00;9.30;;;;;;;-4.11;80.43;100444.16;1711767;82;21186;-83
2022/01/19 07:34:52;;;;;;;27.52;10.25;;;;;;;-4.09;80.29;100449.89;1710773;82;21449;-84
2022/01/19 07:38:03;;;;;;;23.25;9.98;;;;;;;-4.09;80.38;100448.11;1713369;82;21554;-83
2022/01/19 07:41:11;;;;;;;19.77;10.13;;;;;;;-4.09;80.42;100451.23;1706921;82;21583;-83
2022/01/19 07:44:24;;;;;;;19.82;9.10;;;;;;;-4.11;80.07;100448.17;1695798;82;21688;-83
2022/01/19 07:47:41;;;;;;;19.20;9.18;;;;;;;-4.12;79.95;100449.12;1597209;84;21278;-82
2022/01/19 07:51:09;;;;;;;30.37;12.13;;;;;;;-4.08;79.65;100454.31;1709709;82;21735;-78
2022/01/19 07:54:34;;;;;;;25.77;10.65;;;;;;;-4.09;79.44;100465.92;1709669;82;21693;-80
2022/01/19 07:57:49;;;;;;;23.62;11.03;;;;;;;-4.07;79.09;100467.59;1698386;83;22067;-80
2022/01/19 08:00:53;;;;;;;25.02;12.60;;;;;;;-4.03;79.09;100461.61;1714484;82;21498;-77
2022/01/19 08:04:16;;;;;;;25.88;10.90;;;;;;;-3.96;79.40;100473.70;1710235;82;21229;-78
2022/01/19 08:07:20;;;;;;;27.37;12.25;;;;;;;-3.92;78.76;100467.25;1709783;82;21626;-77
2022/01/19 08:10:29;;;;;;;24.35;11.45;;;;;;;-3.92;79.19;100462.77;1710569;82;21326;-78
2022/01/19 08:13:30;;;;;;;31.33;12.35;;;;;;;-3.90;79.07;100474.73;1699210;82;21296;-78
2022/01/19 08:16:36;;;;;;;25.12;12.00;;;;;;;-3.92;79.21;100472.12;1698672;82;21244;-77
2022/01/19 08:19:41;;;;;;;29.63;12.05;;;;;;;-3.91;79.40;100476.52;1710097;82;21257;-79
2022/01/19 08:22:46;;;;;;;27.30;12.40;;;;;;;-3.92;78.87;100470.78;1699894;82;21307;-78
2022/01/19 08:26:00;;;;;;;27.75;12.85;;;;;;;-3.92;79.48;100470.78;1670173;84;21497;-79
2022/01/19 08:29:09;;;;;;;29.05;13.85;;;;;;;-3.89;79.60;100469.30;1674541;84;22120;-83
2022/01/19 08:32:17;;;;;;;29.37;12.75;;;;;;;-3.80;79.49;100464.42;1661203;84;21438;-84
2022/01/19 08:35:31;;;;;;;17.17;9.03;;;;;;;-3.80;77.77;100472.44;1675029;83;21191;-84
2022/01/19 08:38:56;;;;;;;18.52;9.63;;;;;;;-3.87;76.94;100466.53;1600307;87;21213;-85
2022/01/19 08:42:03;;;;;;;15.23;8.68;;;;;;;-3.89;77.50;100473.30;1578867;89;21233;-78
2022/01/19 08:45:10;;;;;;;16.80;8.28;;;;;;;-3.83;77.96;100464.57;1618223;86;21178;-78
2022/01/19 08:48:16;;;;;;;16.00;8.70;;;;;;;-3.88;79.12;100481.70;1642955;85;21188;-79
2022/01/19 08:51:29;;;;;;;14.63;8.00;;;;;;;-3.95;79.58;100466.06;1655392;84;21701;-78
2022/01/19 08:54:36;;;;;;;14.80;7.92;;;;;;;-3.99;80.25;100460.04;1669594;84;22122;-79
2022/01/19 08:57:43;;;;;;;14.20;8.15;;;;;;;-3.92;80.23;100454.75;1656120;84;21317;-78
2022/01/19 09:00:51;;;;;;;14.65;7.45;;;;;;;-3.89;79.98;100449.25;1629804;86;21337;-79
2022/01/19 09:03:59;;;;;;;14.65;8.75;;;;;;;-3.90;79.61;100450.20;1674792;84;21857;-78
2022/01/19 09:07:04;;;;;;;18.55;8.43;;;;;;;-3.94;79.86;100456.66;1669498;84;21205;-77
2022/01/19 09:10:13;;;;;;;19.25;7.10;;;;;;;-3.96;79.80;100457.66;1677445;84;21189;-86
2022/01/19 09:13:20;;;;;;;13.70;7.50;;;;;;;-3.94;79.28;100459.33;1673232;84;21679;-84
2022/01/19 09:16:25;;;;;;;14.43;7.40;;;;;;;-3.87;78.52;100459.84;1671835;84;21346;-78
2022/01/19 09:19:32;;;;;;;17.02;8.05;;;;;;;-3.74;77.94;100464.94;1673503;84;21693;-84
2022/01/19 09:22:39;;;;;;;13.18;7.58;;;;;;;-3.62;76.96;100460.77;1674369;82;21923;-78
2022/01/19 09:25:47;;;;;;;20.62;5.35;;;;;;;-3.52;75.99;100467.34;1692298;82;21856;-78
2022/01/19 09:28:53;;;;;;;10.55;4.78;;;;;;;-3.48;74.51;100455.53;1680767;83;21458;-84
2022/01/19 09:32:01;;;;;;;11.88;3.85;;;;;;;-3.42;73.28;100466.36;1678919;83;21289;-85
2022/01/19 09:35:10;;;;;;;7.42;3.40;;;;;;;-3.45;72.54;100469.19;1678077;83;21191;-80
2022/01/19 09:38:16;;;;;;;14.85;5.17;;;;;;;-3.47;71.77;100469.77;1679501;83;21976;-83
2022/01/19 09:41:24;;;;;;;8.70;4.08;;;;;;;-3.48;71.86;100450.19;1680528;83;22195;-82
2022/01/19 09:44:31;;;;;;;11.22;5.20;;;;;;;-3.44;70.98;100458.40;1681001;83;21183;-79
2022/01/19 09:47:36;;;;;;;10.70;5.08;;;;;;;-3.46;71.17;100453.63;1692431;82;21323;-81
2022/01/19 09:50:44;;;;;;;6.53;3.50;;;;;;;-3.50;71.64;100465.43;1684944;83;21314;-82
2022/01/19 09:53:50;;;;;;;8.53;3.50;;;;;;;-3.53;70.82;100448.20;1681013;83;21534;-79
2022/01/19 09:56:56;;;;;;;6.50;2.98;;;;;;;-3.60;70.60;100464.20;1677976;83;21745;-80
2022/01/19 10:00:03;;;;;;;4.72;2.83;;;;;;;-3.65;70.55;100460.92;1651452;85;21208;-80
2022/01/19 10:03:28;;;;;;;3.65;2.80;;;;;;;-3.62;70.75;100469.64;1695146;82;21229;-82
2022/01/19 10:06:35;;;;;;;6.15;2.92;;;;;;;-3.65;70.97;100459.58;1683204;83;21211;-82
2022/01/19 10:09:40;;;;;;;6.15;3.12;;;;;;;-3.63;70.78;100455.00;1695411;84;22111;-83
2022/01/19 10:19:49;;;;;;;7.62;3.87;;;;;;;-3.52;70.34;100466.00;1701336;82;21210;-82
2022/01/19 10:22:55;;;;;;;9.13;4.22;;;;;;;-3.48;70.46;100461.32;1650189;85;21188;-83
2022/01/19 10:26:03;;;;;;;8.25;4.22;;;;;;;-3.50;70.12;100476.12;1702956;83;21304;-82
2022/01/19 10:29:14;;;;;;;15.47;6.60;;;;;;;-3.47;70.51;100483.13;1697707;83;21347;-81
2022/01/19 10:32:30;;;;;;;9.28;5.30;;;;;;;-3.45;72.13;100486.09;1698786;83;21775;-81
2022/01/19 10:35:40;;;;;;;7.20;4.92;;;;;;;-3.50;71.54;100482.81;1699588;83;22147;-82
2022/01/19 10:38:46;;;;;;;12.55;5.92;;;;;;;-3.47;71.75;100472.44;1697644;83;21855;-84
2022/01/19 10:42:15;;;;;;;19.52;8.08;;;;;;;-3.39;71.64;100485.79;1701551;83;21718;-83
2022/01/19 10:45:20;;;;;;;9.78;4.75;;;;;;;-3.39;71.95;100487.13;1697991;82;21217;-81
2022/01/19 10:48:44;;;;;;;8.10;4.55;;;;;;;-3.46;73.55;100489.73;1699018;82;21308;-83
2022/01/19 10:51:56;;;;;;;6.05;4.00;;;;;;;-3.52;74.33;100496.75;1702885;83;21342;-84
2022/01/19 10:54:59;;;;;;;8.90;3.37;;;;;;;-3.63;75.10;100487.09;1700760;82;21503;-82
2022/01/19 10:58:07;;;;;;;8.87;3.90;;;;;;;-3.66;76.22;100475.23;1701101;82;21340;-83
2022/01/19 11:01:11;;;;;;;8.93;3.22;;;;;;;-3.72;76.38;100475.06;1701112;83;21202;-85
2022/01/19 11:04:39;;;;;;;6.25;3.22;;;;;;;-3.81;76.51;100484.05;1700839;83;21821;-84
2022/01/19 11:07:51;;;;;;;;;;;;;;;-3.88;77.18;100487.05;1703200;83;21221;-83
2022/01/19 11:11:14;;;;;;;4.05;3.02;;;;;;;-3.89;77.55;100491.16;1709178;82;20316;-80
2022/01/19 11:14:35;;;;;;;8.65;3.65;;;;;;;-3.89;78.00;100488.48;1704652;82;21366;-81
2022/01/19 11:17:57;;;;;;;4.62;3.55;;;;;;;-3.92;78.39;100478.80;1679481;83;21188;-84
2022/01/19 11:21:19;;;;;;;6.40;3.40;;;;;;;-3.91;79.00;100490.35;1704005;82;21228;-80
2022/01/19 11:25:35;;;;;;;5.00;3.60;;;;;;;-3.92;79.11;100475.27;1705079;82;21204;-81
2022/01/19 11:28:46;;;;;;;8.38;4.00;;;;;;;-3.89;79.70;100484.00;1705842;82;21203;-80
2022/01/19 11:31:52;;;;;;;7.70;4.25;;;;;;;-3.84;79.34;100480.22;1685575;83;21196;-79
2022/01/19 11:34:58;;;;;;;4.92;3.75;;;;;;;-3.79;78.81;100486.19;1706490;82;21294;-78
2022/01/19 11:38:03;;;;;;;8.60;3.65;;;;;;;-3.77;78.43;100492.30;1708609;82;21847;-78
2022/01/19 11:41:25;;;;;;;7.08;4.55;;;;;;;-3.78;78.31;100483.90;1710072;82;21342;-77
2022/01/19 11:44:47;;;;;;;5.70;4.05;;;;;;;-3.80;78.40;100483.98;1706855;82;21235;-78
2022/01/19 11:48:19;;;;;;;10.50;6.10;;;;;;;-3.84;78.37;100491.77;1707873;82;21283;-79
2022/01/19 11:51:49;;;;;;;9.78;5.03;;;;;;;-3.89;78.64;100500.51;1707498;82;21336;-78
2022/01/19 11:54:58;;;;;;;7.55;4.65;;;;;;;-3.89;78.70;100506.71;1707198;82;21315;-79
2022/01/19 11:58:28;;;;;;;6.85;3.65;;;;;;;-3.93;78.82;100506.48;1690443;82;21779;-77
2022/01/19 12:01:34;;;;;;;6.22;4.28;;;;;;;-4.02;79.26;100516.78;1708561;82;21804;-77
2022/01/19 12:04:47;;;;;;;7.10;4.33;;;;;;;-4.10;80.14;100518.49;1707679;82;21752;-79
2022/01/19 12:07:57;;;;;;;9.43;4.17;;;;;;;-4.07;81.17;100518.34;1708780;82;21184;-83
2022/01/19 12:11:24;;;;;;;8.48;4.00;;;;;;;-4.04;81.28;100518.20;1709901;82;21593;-82
2022/01/19 12:14:38;;;;;;;16.87;5.05;;;;;;;-4.02;80.91;100520.31;1708458;82;21156;-80
2022/01/19 12:18:08;;;;;;;6.00;4.28;;;;;;;-4.06;81.15;100532.09;1705026;82;22054;-85
2022/01/19 12:24:53;;;;;;;8.33;5.40;;;;;;;-4.21;83.08;100512.84;1748187;80;21287;-79
2022/01/19 12:28:00;;;;;;;13.25;4.70;;;;;;;-4.25;83.29;100519.28;1745067;81;21228;-80
2022/01/19 12:31:10;;;;;;;7.90;4.30;;;;;;;-4.22;83.89;100510.65;1748758;81;21202;-82
2022/01/19 12:34:44;;;;;;;8.70;4.47;;;;;;;-4.15;83.62;100502.70;1748244;81;21283;-85
2022/01/19 12:38:03;;;;;;;9.30;5.65;;;;;;;-4.14;82.60;100507.13;1731803;81;21656;-80
2022/01/19 12:41:10;;;;;;;8.83;5.05;;;;;;;-4.21;80.45;100504.83;1676084;81;21168;-81
2022/01/19 12:44:49;;;;;;;6.85;3.98;;;;;;;-4.26;79.92;100499.72;1750020;81;21235;-80
2022/01/19 12:48:12;;;;;;;9.88;4.53;;;;;;;-4.28;78.96;100498.05;1721072;82;21255;-81
2022/01/19 12:51:41;;;;;;;7.78;4.10;;;;;;;-4.31;79.60;100489.75;1719562;82;21350;-81
2022/01/19 12:54:48;;;;;;;9.90;4.60;;;;;;;-4.35;79.56;100485.97;1714756;82;21486;-81
2022/01/19 12:57:54;;;;;;;4.97;3.75;;;;;;;-4.44;79.12;100488.16;1715702;82;21525;-80
2022/01/19 13:01:05;;;;;;;6.03;3.87;;;;;;;-4.53;79.39;100497.95;1716824;82;21302;-80
2022/01/19 13:04:10;;;;;;;8.50;3.77;;;;;;;-4.61;79.63;100501.50;1715196;82;21223;-80
2022/01/19 13:07:30;;;;;;;6.30;3.98;;;;;;;-4.68;80.45;100509.40;1725957;82;21613;-80
2022/01/19 13:10:43;;;;;;;5.72;4.00;;;;;;;-4.73;79.91;100523.44;1719153;82;21235;-80
2022/01/19 13:13:57;;;;;;;7.70;4.10;;;;;;;-4.81;79.68;100526.94;1717919;82;21322;-80
2022/01/19 13:17:04;;;;;;;5.03;3.33;;;;;;;-4.86;80.17;100537.83;1721593;82;21925;-81
2022/01/19 13:20:28;;;;;;;8.55;3.90;;;;;;;-4.86;80.75;100539.16;1722693;82;21342;-80
2022/01/19 13:23:39;;;;;;;7.55;4.00;;;;;;;-4.84;80.87;100546.65;1722534;82;21316;-79
2022/01/19 13:26:47;;;;;;;6.10;4.10;;;;;;;-4.84;79.98;100540.45;1736833;82;21349;-80
2022/01/19 13:29:52;;;;;;;10.43;4.33;;;;;;;-4.89;79.26;100538.00;1741003;82;21219;-80
2022/01/19 13:32:58;;;;;;;10.10;4.75;;;;;;;-4.94;79.36;100537.33;1736743;82;22032;-80
2022/01/19 13:36:09;;;;;;;9.90;3.98;;;;;;;-4.97;79.77;100537.48;1737974;82;21202;-79
2022/01/19 13:39:16;;;;;;;6.72;4.08;;;;;;;-5.00;79.54;100531.81;1733725;82;21291;-79
2022/01/19 13:42:21;;;;;;;7.10;4.05;;;;;;;-5.05;79.69;100548.98;1743337;82;21278;-80
2022/01/19 13:48:47;;;;;;;5.42;2.83;;;;;;;-5.12;80.04;100535.08;1742290;80;21426;-80
2022/01/19 13:51:53;;;;;;;10.53;4.08;;;;;;;-5.12;80.44;100547.08;1743584;82;21224;-80
2022/01/19 13:54:58;;;;;;;6.62;3.67;;;;;;;-5.12;80.70;100561.75;1739440;81;21191;-79
2022/01/19 13:58:19;;;;;;;10.13;4.72;;;;;;;-5.14;80.52;100555.13;1742243;82;21704;-80
2022/01/19 14:01:28;;;;;;;7.42;4.40;;;;;;;-5.12;80.29;100564.89;1740406;82;21329;-80
2022/01/19 14:04:34;;;;;;;20.10;5.75;;;;;;;-5.15;79.70;100572.08;1740174;82;21329;-79
2022/01/19 14:07:40;;;;;;;6.62;4.00;;;;;;;-5.27;79.12;100562.43;1742458;82;21956;-79
2022/01/19 14:10:57;;;;;;;10.88;4.03;;;;;;;-5.38;79.34;100569.59;1741407;82;21955;-79
2022/01/19 14:14:11;;;;;;;7.75;5.17;;;;;;;-5.48;79.38;100577.14;1739811;82;21384;-79
2022/01/19 14:17:22;;;;;;;7.05;4.17;;;;;;;-5.55;79.94;100582.36;1735072;82;21577;-80
2022/01/19 14:20:28;;;;;;;8.05;5.08;;;;;;;-5.61;80.31;100583.94;1739859;82;21991;-79
2022/01/19 14:23:33;;;;;;;6.35;3.92;;;;;;;-5.62;80.64;100592.87;1737264;82;21600;-79
2022/01/19 14:26:40;;;;;;;4.97;3.37;;;;;;;-5.60;80.66;100592.33;1725226;81;21813;-80
2022/01/19 14:30:07;;;;;;;6.25;3.35;;;;;;;-5.58;80.45;100585.62;1729469;81;21322;-79
2022/01/19 14:33:17;;;;;;;5.05;3.65;;;;;;;-5.60;80.08;100591.00;1729812;81;21233;-80
2022/01/19 14:36:29;;;;;;;6.62;3.67;;;;;;;-5.55;80.18;100593.45;1721957;81;21276;-79
2022/01/19 14:39:35;;;;;;;8.00;4.37;;;;;;;-5.55;79.89;100602.35;1738820;82;21207;-80
2022/01/19 14:42:43;;;;;;;9.10;5.65;;;;;;;-5.58;79.93;100607.80;1695041;83;21755;-79
2022/01/19 14:46:10;;;;;;;9.15;4.80;;;;;;;-5.58;79.79;100605.14;1730497;82;21330;-79
2022/01/19 14:49:11;;;;;;;6.37;3.98;;;;;;;-5.59;79.43;100611.41;1739589;81;21518;-78
2022/01/19 14:52:16;;;;;;;4.95;3.58;;;;;;;-5.59;79.50;100612.74;1742844;82;21227;-80
2022/01/19 14:55:22;;;;;;;7.80;3.90;;;;;;;-5.57;79.40;100616.19;1725888;82;21212;-78
2022/01/19 14:58:29;;;;;;;4.62;3.12;;;;;;;-5.58;79.03;100621.13;1687594;85;21321;-78
2022/01/19 15:01:35;;;;;;;9.83;3.95;;;;;;;-5.58;78.97;100623.80;1689606;85;21992;-78
2022/01/19 15:04:41;;;;;;;9.58;4.25;;;;;;;-5.60;78.67;100632.30;1691175;85;21283;-78
2022/01/19 15:07:46;;;;;;;13.53;6.35;;;;;;;-5.64;78.36;100638.73;1690991;85;21390;-78
2022/01/19 15:10:45;;;;;;;7.85;4.75;;;;;;;-5.66;78.47;100639.25;1690660;85;21306;-78
2022/01/19 15:13:51;;;;;;;7.10;3.62;;;;;;;-5.63;78.50;100642.26;1688649;85;21997;-78
2022/01/19 15:16:56;;;;;;;6.12;3.62;;;;;;;-5.61;78.28;100640.37;1686979;85;21374;-78
2022/01/19 15:20:02;;;;;;;9.50;4.00;;;;;;;-5.61;78.33;100650.57;1714719;83;21836;-78
2022/01/19 15:23:08;;;;;;;8.33;4.47;;;;;;;-5.61;78.13;100647.91;1721240;83;21350;-78
2022/01/19 15:26:13;;;;;;;9.05;4.35;;;;;;;-5.63;78.30;100653.78;1698376;83;21241;-79
2022/01/19 15:29:19;;;;;;;10.80;4.62;;;;;;;-5.61;77.90;100651.91;1750154;82;21322;-79
2022/01/19 15:32:27;;;;;;;10.03;5.25;;;;;;;-5.62;77.79;100646.66;1697679;84;21346;-79
2022/01/19 15:35:32;;;;;;;6.37;4.10;;;;;;;-5.62;77.69;100651.51;1725757;83;21717;-79
2022/01/19 15:38:38;;;;;;;11.33;6.05;;;;;;;-5.63;77.80;100655.59;1724889;83;21712;-79
2022/01/19 15:41:47;;;;;;;14.60;7.05;;;;;;;-5.63;77.80;100660.45;1753200;81;21314;-78
2022/01/19 15:44:52;;;;;;;11.12;5.37;;;;;;;-5.60;77.74;100666.95;1755549;81;21778;-79
2022/01/19 15:47:58;;;;;;;8.35;5.20;;;;;;;-5.58;77.43;100666.44;1754676;81;21822;-79
2022/01/19 15:51:06;;;;;;;8.83;5.22;;;;;;;-5.63;77.39;100659.11;1756067;81;21476;-79
2022/01/19 15:54:11;;;;;;;10.28;6.05;;;;;;;-5.68;77.46;100664.64;1755907;81;21715;-79
2022/01/19 15:57:16;;;;;;;10.00;6.47;;;;;;;-5.71;77.76;100665.22;1754775;81;21734;-79
2022/01/19 16:00:22;;;;;;;14.38;7.67;;;;;;;-5.73;77.83;100665.30;1774756;80;21291;-79
2022/01/19 16:03:27;;;;;;;12.88;7.35;;;;;;;-5.71;77.89;100665.22;1733073;83;21790;-79
2022/01/19 16:06:32;;;;;;;13.25;6.40;;;;;;;-5.74;77.87;100659.58;1783997;80;21540;-79